Time;durP1;ratioP1;P1;durP2;ratioP2;P2;SDS_P1;SDS_P2;PMS_P1;PMS_P2;Temp;Humidity;BMP_temperature;BMP_pressure;BME280_temperature;BME280_humidity;BME280_pressure;Samples;Min_cycle;Max_cycle;Signal;HPM_P1;HPM_P2
2023/02/10 00:01:33;;;;;;;14.40;6.40;;;;;;;-128.00;-1.00;-1.00;102732;1256;1010845;-46
2023/02/10 00:04:02;;;;;;;13.60;6.10;;;;;;;-128.00;-1.00;-1.00;103046;1259;1013163;-45
2023/02/10 00:06:30;;;;;;;14.30;6.40;;;;;;;-128.00;-1.00;-1.00;102872;1259;1012917;-44
2023/02/10 00:08:59;;;;;;;17.30;7.10;;;;;;;-128.00;-1.00;-1.00;102531;1259;1002492;-45
2023/02/10 00:14:15;;;;;;;17.50;6.90;;;;;;;-128.00;-1.00;-1.00;102395;1256;1011727;-46
2023/02/10 00:16:43;;;;;;;13.70;5.90;;;;;;;-128.00;-1.00;-1.00;102585;1261;1014460;-45
2023/02/10 00:19:11;;;;;;;13.10;5.90;;;;;;;-128.00;-1.00;-1.00;102577;1256;1012690;-46
2023/02/10 00:21:39;;;;;;;19.20;7.00;;;;;;;-128.00;-1.00;-1.00;102587;1256;1002934;-46
2023/02/10 00:24:07;;;;;;;17.20;6.00;;;;;;;-128.00;-1.00;-1.00;102390;1256;1002789;-45
2023/02/10 00:26:35;;;;;;;15.60;5.80;;;;;;;-128.00;-1.00;-1.00;102951;1259;1002442;-43
2023/02/10 00:29:03;;;;;;;14.10;5.60;;;;;;;-128.00;-1.00;-1.00;102634;1259;1002985;-44
2023/02/10 00:31:32;;;;;;;17.70;5.40;;;;;;;-128.00;-1.00;-1.00;102755;1256;1012180;-45
2023/02/10 00:34:01;;;;;;;17.80;5.90;;;;;;;-128.00;-1.00;-1.00;102516;1259;1012263;-42
2023/02/10 00:36:29;;;;;;;15.80;5.30;;;;;;;-128.00;-1.00;-1.00;102390;1259;1002952;-45
2023/02/10 00:38:57;;;;;;;13.40;6.30;;;;;;;-128.00;-1.00;-1.00;102536;1259;1002768;-45
2023/02/10 00:41:25;;;;;;;16.40;6.00;;;;;;;-128.00;-1.00;-1.00;102593;1259;1002964;-45
2023/02/10 00:43:54;;;;;;;14.80;6.70;;;;;;;-128.00;-1.00;-1.00;102313;1259;1012409;-46
2023/02/10 00:46:23;;;;;;;14.60;7.00;;;;;;;-128.00;-1.00;-1.00;102376;1259;1013169;-46
2023/02/10 00:48:51;;;;;;;19.20;7.10;;;;;;;-128.00;-1.00;-1.00;102446;1261;1010955;-45
2023/02/10 00:51:19;;;;;;;14.00;6.40;;;;;;;-128.00;-1.00;-1.00;102694;1259;1002920;-44
2023/02/10 00:53:52;;;;;;;16.20;7.30;;;;;;;-128.00;-1.00;-1.00;102159;1262;1012966;-46
2023/02/10 00:56:20;;;;;;;15.30;6.60;;;;;;;-128.00;-1.00;-1.00;102496;1256;1013818;-45
2023/02/10 00:58:48;;;;;;;16.60;6.20;;;;;;;-128.00;-1.00;-1.00;102434;1259;1003584;-45
2023/02/10 01:01:16;;;;;;;14.80;7.20;;;;;;;-128.00;-1.00;-1.00;102475;1259;1003110;-44
2023/02/10 01:03:44;;;;;;;15.90;6.40;;;;;;;-128.00;-1.00;-1.00;102485;1256;1003486;-44
2023/02/10 01:06:14;;;;;;;16.70;6.80;;;;;;;-128.00;-1.00;-1.00;102711;1259;1013261;-45
2023/02/10 01:08:42;;;;;;;15.20;6.70;;;;;;;-128.00;-1.00;-1.00;102228;1262;1013759;-47
2023/02/10 01:11:11;;;;;;;17.40;7.40;;;;;;;-128.00;-1.00;-1.00;102509;1259;1012767;-45
2023/02/10 01:13:40;;;;;;;16.10;7.30;;;;;;;-128.00;-1.00;-1.00;102354;1259;1010167;-44
2023/02/10 01:16:13;;;;;;;15.70;6.40;;;;;;;-128.00;-1.00;-1.00;102257;1262;1011733;-43
2023/02/10 01:18:41;;;;;;;14.40;6.10;;;;;;;-128.00;-1.00;-1.00;102628;1255;1012976;-45
2023/02/10 01:21:14;;;;;;;11.70;5.50;;;;;;;-128.00;-1.00;-1.00;102654;1259;1011829;-46
2023/02/10 01:23:43;;;;;;;17.70;6.90;;;;;;;-128.00;-1.00;-1.00;102236;1262;1013256;-45
2023/02/10 01:26:12;;;;;;;18.40;6.90;;;;;;;-128.00;-1.00;-1.00;102637;1256;1010188;-46
2023/02/10 01:28:40;;;;;;;11.40;6.00;;;;;;;-128.00;-1.00;-1.00;102589;1259;1010834;-46
2023/02/10 01:31:11;;;;;;;13.10;6.50;;;;;;;-128.00;-1.00;-1.00;102532;1259;1012975;-46
2023/02/10 01:33:41;;;;;;;16.70;6.90;;;;;;;-128.00;-1.00;-1.00;102842;1256;1012940;-45
2023/02/10 01:36:14;;;;;;;13.20;6.20;;;;;;;-128.00;-1.00;-1.00;102544;1259;1003122;-45
2023/02/10 01:38:42;;;;;;;15.60;6.40;;;;;;;-128.00;-1.00;-1.00;102415;1259;1010376;-43
2023/02/10 01:41:10;;;;;;;15.40;6.70;;;;;;;-128.00;-1.00;-1.00;102441;1259;1002792;-45
2023/02/10 01:44:18;;;;;;;16.70;5.40;;;;;;;-128.00;-1.00;-1.00;102556;1261;1012917;-45
2023/02/10 01:46:47;;;;;;;17.20;6.10;;;;;;;-128.00;-1.00;-1.00;102306;1262;1011935;-44
2023/02/10 01:49:16;;;;;;;17.00;6.80;;;;;;;-128.00;-1.00;-1.00;102543;1259;1013098;-45
2023/02/10 01:51:56;;;;;;;17.20;8.10;;;;;;;-128.00;-1.00;-1.00;102094;1263;1009902;-43
2023/02/10 01:54:36;;;;;;;14.70;6.00;;;;;;;-128.00;-1.00;-1.00;102217;1262;1010516;-45
2023/02/10 01:57:04;;;;;;;21.90;9.20;;;;;;;-128.00;-1.00;-1.00;102412;1257;1013113;-46
2023/02/10 01:59:35;;;;;;;16.00;7.60;;;;;;;-128.00;-1.00;-1.00;102174;1257;1013025;-45
2023/02/10 02:02:06;;;;;;;16.60;7.10;;;;;;;-128.00;-1.00;-1.00;102464;1256;1014381;-43
2023/02/10 02:04:41;;;;;;;17.30;9.00;;;;;;;-128.00;-1.00;-1.00;102347;1256;1010527;-46
2023/02/10 02:07:09;;;;;;;18.90;8.00;;;;;;;-128.00;-1.00;-1.00;102534;1256;1012296;-46
2023/02/10 02:09:37;;;;;;;21.00;9.20;;;;;;;-128.00;-1.00;-1.00;102516;1262;1013704;-46
2023/02/10 02:12:35;;;;;;;19.30;8.70;;;;;;;-128.00;-1.00;-1.00;102447;1262;1002638;-46
2023/02/10 02:15:10;;;;;;;19.80;8.20;;;;;;;-128.00;-1.00;-1.00;102559;1259;1012707;-46
2023/02/10 02:17:47;;;;;;;16.20;7.40;;;;;;;-128.00;-1.00;-1.00;102900;1256;1010678;-44
2023/02/10 02:20:40;;;;;;;16.20;7.80;;;;;;;-128.00;-1.00;-1.00;102702;1262;1010775;-45
2023/02/10 02:23:43;;;;;;;18.70;8.00;;;;;;;-128.00;-1.00;-1.00;102315;1256;1012549;-45
2023/02/10 02:26:43;;;;;;;17.90;7.70;;;;;;;-128.00;-1.00;-1.00;102269;1257;1015398;-45
2023/02/10 02:29:16;;;;;;;17.70;8.60;;;;;;;-128.00;-1.00;-1.00;102510;1262;1012907;-45
2023/02/10 02:32:07;;;;;;;21.00;9.60;;;;;;;-128.00;-1.00;-1.00;102391;1259;1010506;-46
2023/02/10 02:34:42;;;;;;;21.70;9.60;;;;;;;-128.00;-1.00;-1.00;102230;1256;1011342;-47
2023/02/10 02:37:26;;;;;;;18.70;8.70;;;;;;;-128.00;-1.00;-1.00;102854;1259;1013363;-47
2023/02/10 02:39:55;;;;;;;15.70;7.70;;;;;;;-128.00;-1.00;-1.00;102882;1262;1013129;-47
2023/02/10 02:42:28;;;;;;;19.50;8.90;;;;;;;-128.00;-1.00;-1.00;102097;1256;1012762;-47
2023/02/10 02:45:04;;;;;;;18.00;7.90;;;;;;;-128.00;-1.00;-1.00;102612;1259;1010378;-47
2023/02/10 02:48:03;;;;;;;15.60;7.80;;;;;;;-128.00;-1.00;-1.00;102695;1255;1011509;-45
2023/02/10 02:50:57;;;;;;;16.80;6.60;;;;;;;-128.00;-1.00;-1.00;102480;1256;1013264;-45
2023/02/10 02:53:51;;;;;;;15.20;6.20;;;;;;;-128.00;-1.00;-1.00;102555;1259;1013229;-44
2023/02/10 02:56:32;;;;;;;16.40;6.80;;;;;;;-128.00;-1.00;-1.00;102224;1260;1013136;-45
2023/02/10 02:59:28;;;;;;;13.80;4.80;;;;;;;-128.00;-1.00;-1.00;102269;1259;1010427;-45
2023/02/10 03:01:58;;;;;;;14.20;5.70;;;;;;;-128.00;-1.00;-1.00;102318;1262;1010926;-45
2023/02/10 03:04:28;;;;;;;17.70;7.20;;;;;;;-128.00;-1.00;-1.00;102481;1256;1013064;-44
2023/02/10 03:06:56;;;;;;;18.70;7.10;;;;;;;-128.00;-1.00;-1.00;101906;1263;1012524;-45
2023/02/10 03:09:24;;;;;;;15.50;6.30;;;;;;;-128.00;-1.00;-1.00;102671;1259;1013023;-46
2023/02/10 03:11:52;;;;;;;17.00;6.40;;;;;;;-128.00;-1.00;-1.00;102443;1262;1002860;-46
2023/02/10 03:14:20;;;;;;;15.30;6.90;;;;;;;-128.00;-1.00;-1.00;102371;1262;1010454;-45
2023/02/10 03:16:48;;;;;;;15.10;6.00;;;;;;;-128.00;-1.00;-1.00;102136;1263;1002397;-46
2023/02/10 03:19:16;;;;;;;14.60;6.10;;;;;;;-128.00;-1.00;-1.00;102421;1262;1003348;-43
2023/02/10 03:21:44;;;;;;;13.30;5.90;;;;;;;-128.00;-1.00;-1.00;102638;1258;1002522;-45
2023/02/10 03:24:14;;;;;;;13.50;6.60;;;;;;;-128.00;-1.00;-1.00;102158;1262;1010479;-43
2023/02/10 03:26:48;;;;;;;14.20;6.30;;;;;;;-128.00;-1.00;-1.00;101987;1262;1011718;-44
2023/02/10 03:29:16;;;;;;;17.60;6.50;;;;;;;-128.00;-1.00;-1.00;102211;1258;1004080;-44
2023/02/10 03:31:44;;;;;;;14.80;6.30;;;;;;;-128.00;-1.00;-1.00;102267;1262;1013354;-44
2023/02/10 03:34:13;;;;;;;15.50;6.40;;;;;;;-128.00;-1.00;-1.00;102163;1262;1012886;-44
2023/02/10 03:36:41;;;;;;;15.60;6.80;;;;;;;-128.00;-1.00;-1.00;102625;1262;1010506;-44
2023/02/10 03:39:09;;;;;;;12.80;6.00;;;;;;;-128.00;-1.00;-1.00;101860;1262;1003380;-46
2023/02/10 03:41:37;;;;;;;13.50;6.20;;;;;;;-128.00;-1.00;-1.00;102517;1262;1013936;-45
2023/02/10 03:44:06;;;;;;;16.10;6.80;;;;;;;-128.00;-1.00;-1.00;102334;1262;1003204;-45
2023/02/10 03:46:36;;;;;;;19.40;8.00;;;;;;;-128.00;-1.00;-1.00;102221;1262;1013069;-45
2023/02/10 03:49:05;;;;;;;15.40;7.00;;;;;;;-128.00;-1.00;-1.00;102066;1262;1010399;-45
2023/02/10 03:51:35;;;;;;;15.80;7.30;;;;;;;-128.00;-1.00;-1.00;102459;1262;1011640;-45
2023/02/10 03:54:03;;;;;;;12.60;5.80;;;;;;;-128.00;-1.00;-1.00;102194;1262;1003003;-45
2023/02/10 03:56:32;;;;;;;12.70;5.80;;;;;;;-128.00;-1.00;-1.00;102177;1259;1015541;-47
2023/02/10 03:59:01;;;;;;;15.80;7.70;;;;;;;-128.00;-1.00;-1.00;102225;1258;1002635;-45
2023/02/10 04:01:29;;;;;;;13.60;6.10;;;;;;;-128.00;-1.00;-1.00;104170;1259;1010756;-45
2023/02/10 04:03:57;;;;;;;17.20;7.00;;;;;;;-128.00;-1.00;-1.00;102014;1259;1010850;-46
2023/02/10 04:06:25;;;;;;;12.70;6.50;;;;;;;-128.00;-1.00;-1.00;102635;1262;1004248;-47
2023/02/10 04:08:54;;;;;;;14.30;6.60;;;;;;;-128.00;-1.00;-1.00;102323;1262;1013518;-45
2023/02/10 04:11:33;;;;;;;11.20;5.60;;;;;;;-128.00;-1.00;-1.00;102346;1262;1012496;-44
2023/02/10 04:14:03;;;;;;;11.80;5.60;;;;;;;-128.00;-1.00;-1.00;102355;1256;1010258;-46
2023/02/10 04:16:33;;;;;;;15.30;7.00;;;;;;;-128.00;-1.00;-1.00;102304;1261;1011023;-46
2023/02/10 04:19:03;;;;;;;15.60;7.00;;;;;;;-128.00;-1.00;-1.00;102453;1256;1012406;-47
2023/02/10 04:21:31;;;;;;;13.60;5.30;;;;;;;-128.00;-1.00;-1.00;102572;1259;1002775;-47
2023/02/10 04:23:59;;;;;;;13.90;6.30;;;;;;;-128.00;-1.00;-1.00;102204;1256;1003003;-47
2023/02/10 04:26:27;;;;;;;16.40;7.20;;;;;;;-128.00;-1.00;-1.00;102337;1259;1002747;-47
2023/02/10 04:31:31;;;;;;;14.10;6.20;;;;;;;;;;102421;1292;601646;-46
2023/02/10 04:33:59;;;;;;;15.70;6.80;;;;;;;;;;104831;1263;59021;-46
2023/02/10 04:36:27;;;;;;;12.70;6.10;;;;;;;;;;104425;1267;59030;-46
2023/02/10 04:38:55;;;;;;;14.90;7.20;;;;;;;;;;104907;1264;60472;-45
2023/02/10 04:41:23;;;;;;;12.10;5.40;;;;;;;;;;104722;1266;59033;-46
2023/02/10 04:43:51;;;;;;;13.80;5.40;;;;;;;;;;104640;1264;60474;-47
2023/02/10 04:46:18;;;;;;;9.00;3.80;;;;;;;;;;104358;1266;109365;-48
2023/02/10 04:48:46;;;;;;;12.00;4.90;;;;;;;;;;104627;1260;59030;-46
2023/02/10 04:51:15;;;;;;;12.00;5.00;;;;;;;;;;104776;1261;60394;-47
2023/02/10 04:53:47;;;;;;;11.90;4.90;;;;;;;;;;104831;1260;58914;-43
2023/02/10 04:56:15;;;;;;;9.00;4.00;;;;;;;;;;104817;1260;59791;-45
2023/02/10 04:58:43;;;;;;;12.50;5.30;;;;;;;;;;104790;1265;59738;-46
2023/02/10 05:01:11;;;;;;;10.10;4.20;;;;;;;;;;104834;1260;59631;-46
2023/02/10 05:03:39;;;;;;;13.80;5.00;;;;;;;;;;104932;1261;61804;-47
2023/02/10 05:06:10;;;;;;;11.10;4.70;;;;;;;;;;104772;1265;59788;-46
2023/02/10 05:08:41;;;;;;;13.30;4.90;;;;;;;;;;104823;1261;59650;-46
2023/02/10 05:11:09;;;;;;;10.50;4.20;;;;;;;;;;104523;1260;59736;-45
2023/02/10 05:13:37;;;;;;;9.40;4.10;;;;;;;;;;106880;1263;58981;-47
2023/02/10 05:16:06;;;;;;;16.50;4.90;;;;;;;;;;105216;1258;61278;-47
2023/02/10 05:18:34;;;;;;;12.60;4.10;;;;;;;;;;104987;1262;59638;-44
2023/02/10 05:21:03;;;;;;;12.50;5.00;;;;;;;;;;104658;1257;60450;-45
2023/02/10 05:23:33;;;;;;;13.40;4.20;;;;;;;;;;104523;1263;59730;-46
2023/02/10 05:26:01;;;;;;;10.80;4.00;;;;;;;;;;104928;1259;59406;-46
2023/02/10 05:28:29;;;;;;;14.30;4.40;;;;;;;;;;104921;1258;61101;-45
2023/02/10 05:30:59;;;;;;;16.40;6.20;;;;;;;;;;104876;1262;59735;-44
2023/02/10 05:33:27;;;;;;;20.30;5.20;;;;;;;;;;104992;1262;60789;-44
2023/02/10 05:35:56;;;;;;;19.20;6.80;;;;;;;;;;104886;1258;59832;-44
2023/02/10 05:38:26;;;;;;;17.20;6.00;;;;;;;;;;104821;1260;59601;-44
2023/02/10 05:40:54;;;;;;;19.90;6.20;;;;;;;;;;104930;1260;60600;-44
2023/02/10 05:43:22;;;;;;;18.90;5.60;;;;;;;;;;104689;1260;59756;-44
2023/02/10 05:45:50;;;;;;;12.50;4.30;;;;;;;;;;105399;1260;60736;-45
2023/02/10 05:48:18;;;;;;;12.20;4.10;;;;;;;;;;104725;1262;59660;-45
2023/02/10 05:50:51;;;;;;;11.90;3.70;;;;;;;;;;104909;1258;59840;-44
2023/02/10 05:53:19;;;;;;;10.70;3.90;;;;;;;;;;104919;1262;60239;-44
2023/02/10 05:55:51;;;;;;;12.10;4.80;;;;;;;;;;105141;1259;59628;-45
2023/02/10 05:58:19;;;;;;;12.20;4.00;;;;;;;;;;104665;1263;60795;-44
2023/02/10 06:00:47;;;;;;;9.80;3.40;;;;;;;;;;105178;1260;59676;-44
2023/02/10 06:03:15;;;;;;;7.90;3.40;;;;;;;;;;107619;1257;59035;-46
2023/02/10 06:05:43;;;;;;;7.70;3.40;;;;;;;;;;105264;1260;61066;-46
2023/02/10 06:08:11;;;;;;;8.40;3.50;;;;;;;;;;105420;1259;59752;-44
2023/02/10 06:10:39;;;;;;;12.70;4.10;;;;;;;;;;104687;1258;60801;-44
2023/02/10 06:13:07;;;;;;;11.40;3.70;;;;;;;;;;104865;1263;59600;-44
2023/02/10 06:15:35;;;;;;;8.10;3.10;;;;;;;;;;104935;1258;59749;-44
2023/02/10 06:18:08;;;;;;;10.30;3.50;;;;;;;;;;104626;1260;61306;-45
2023/02/10 06:20:37;;;;;;;12.10;3.80;;;;;;;;;;104931;1260;59660;-45
2023/02/10 06:23:04;;;;;;;10.90;4.60;;;;;;;;;;104924;1263;60547;-46
2023/02/10 06:25:35;;;;;;;9.90;5.00;;;;;;;;;;104975;1259;59679;-46
2023/02/10 06:28:04;;;;;;;9.30;3.70;;;;;;;;;;104713;1261;59698;-44
2023/02/10 06:30:33;;;;;;;8.50;3.90;;;;;;;;;;104476;1263;61163;-44
2023/02/10 06:33:01;;;;;;;10.00;4.70;;;;;;;;;;104787;1260;59652;-45
2023/02/10 06:35:29;;;;;;;10.90;4.80;;;;;;;;;;105267;1263;60719;-45
2023/02/10 06:37:57;;;;;;;10.40;4.20;;;;;;;;;;104967;1263;59711;-44
2023/02/10 06:40:25;;;;;;;10.70;3.90;;;;;;;;;;104311;1260;59716;-46
2023/02/10 06:42:53;;;;;;;9.40;4.10;;;;;;;;;;105070;1259;61397;-43
2023/02/10 06:45:21;;;;;;;11.60;4.80;;;;;;;;;;104844;1261;59544;-46
2023/02/10 06:47:48;;;;;;;13.50;4.30;;;;;;;;;;104622;1260;61703;-43
2023/02/10 06:50:17;;;;;;;8.20;4.30;;;;;;;;;;105663;1254;59638;-45
2023/02/10 06:52:45;;;;;;;12.40;5.50;;;;;;;;;;105670;1251;59724;-46
2023/02/10 06:55:14;;;;;;;11.20;4.40;;;;;;;;;;105422;1251;61289;-45
2023/02/10 06:57:41;;;;;;;10.90;3.80;;;;;;;;;;108287;1253;58713;-42
2023/02/10 07:00:10;;;;;;;15.50;4.70;;;;;;;;;;105200;1251;61017;-44
2023/02/10 07:02:39;;;;;;;10.40;4.30;;;;;;;;;;105365;1254;59493;-45
2023/02/10 07:05:07;;;;;;;13.90;4.90;;;;;;;;;;105454;1251;59717;-46
2023/02/10 07:07:35;;;;;;;13.40;4.20;;;;;;;;;;105827;1251;61312;-44
2023/02/10 07:10:03;;;;;;;10.20;4.90;;;;;;;;;;105288;1253;59225;-45
2023/02/10 07:12:31;;;;;;;11.80;5.20;;;;;;;;;;105598;1250;60677;-44
2023/02/10 07:14:59;;;;;;;10.50;5.20;;;;;;;;;;105475;1253;59589;-44
2023/02/10 07:17:28;;;;;;;17.80;7.10;;;;;;;;;;105757;1250;59544;-47
2023/02/10 07:19:55;;;;;;;32.60;11.00;;;;;;;;;;104999;1251;61753;-45
2023/02/10 07:22:24;;;;;;;35.60;10.40;;;;;;;;;;105285;1253;59750;-46
2023/02/10 07:24:52;;;;;;;29.60;10.60;;;;;;;;;;105341;1254;61228;-47
2023/02/10 07:27:20;;;;;;;26.10;9.70;;;;;;;;;;105531;1253;59736;-46
2023/02/10 07:29:48;;;;;;;22.20;8.20;;;;;;;;;;105516;1251;61239;-47
2023/02/10 07:32:16;;;;;;;23.20;8.60;;;;;;;;;;106475;1251;62702;-44
2023/02/10 07:34:46;;;;;;;29.60;11.50;;;;;;;;;;105410;1253;59697;-46
2023/02/10 07:37:13;;;;;;;25.40;11.20;;;;;;;;;;105569;1266;60965;-45
2023/02/10 07:39:41;;;;;;;22.20;9.10;;;;;;;;;;105484;1253;59621;-47
2023/02/10 07:42:09;;;;;;;14.50;7.00;;;;;;;;;;105594;1251;59689;-45
2023/02/10 07:44:52;;;;;;;15.30;7.20;;;;;;;;;;105577;1250;61361;-45
2023/02/10 07:47:20;;;;;;;18.70;6.70;;;;;;;;;;105487;1251;59649;-45
2023/02/10 07:49:48;;;;;;;17.50;7.30;;;;;;;;;;105464;1251;60750;-46
2023/02/10 07:52:17;;;;;;;13.90;7.10;;;;;;;;;;105797;1251;59885;-43
2023/02/10 07:54:45;;;;;;;15.80;7.00;;;;;;;;;;105583;1252;59615;-43
2023/02/10 07:57:13;;;;;;;15.30;6.40;;;;;;;;;;105534;1253;61398;-47
2023/02/10 07:59:41;;;;;;;13.10;6.90;;;;;;;;;;105726;1253;59622;-46
2023/02/10 08:02:09;;;;;;;15.80;6.80;;;;;;;;;;105445;1258;60795;-47
2023/02/10 08:04:37;;;;;;;15.00;7.80;;;;;;;;;;105455;1253;59731;-47
2023/02/10 08:07:10;;;;;;;18.50;8.60;;;;;;;;;;105250;1253;59541;-47
2023/02/10 08:09:38;;;;;;;11.20;5.80;;;;;;;;;;106183;1251;61221;-47
2023/02/10 08:12:08;;;;;;;14.50;7.00;;;;;;;;;;105621;1253;59924;-46
2023/02/10 08:14:36;;;;;;;13.00;5.80;;;;;;;;;;105660;1254;60506;-46
2023/02/10 08:17:04;;;;;;;12.30;5.70;;;;;;;;;;105572;1251;59694;-45
2023/02/10 08:19:36;;;;;;;12.40;6.70;;;;;;;;;;105547;1251;59500;-46
2023/02/10 08:22:04;;;;;;;14.80;6.90;;;;;;;;;;106219;1251;61405;-46
2023/02/10 08:24:32;;;;;;;15.60;7.90;;;;;;;;;;106106;1253;59554;-45
2023/02/10 08:27:00;;;;;;;15.60;7.00;;;;;;;;;;105599;1251;60815;-47
2023/02/10 08:29:28;;;;;;;11.10;4.90;;;;;;;;;;105440;1253;59701;-45
2023/02/10 08:31:56;;;;;;;11.90;5.90;;;;;;;;;;105358;1255;59612;-46
2023/02/10 08:34:25;;;;;;;15.80;6.40;;;;;;;;;;105537;1251;61227;-46
2023/02/10 08:36:53;;;;;;;16.60;6.80;;;;;;;;;;105877;1251;59699;-47
2023/02/10 08:39:21;;;;;;;13.90;5.80;;;;;;;;;;105520;1250;60764;-48
2023/02/10 08:41:50;;;;;;;13.70;6.70;;;;;;;;;;105660;1254;60421;-45
2023/02/10 08:44:18;;;;;;;14.60;6.40;;;;;;;;;;105184;1251;62606;-47
2023/02/10 08:46:46;;;;;;;16.70;7.00;;;;;;;;;;105161;1252;62161;-45
2023/02/10 08:49:14;;;;;;;10.40;6.00;;;;;;;;;;105528;1251;60412;-47
2023/02/10 08:51:42;;;;;;;13.50;6.70;;;;;;;;;;105530;1254;60861;-46
2023/02/10 08:54:10;;;;;;;15.40;6.50;;;;;;;;;;105389;1251;60409;-47
2023/02/10 08:56:37;;;;;;;16.20;7.60;;;;;;;;;;105163;1251;60360;-47
2023/02/10 08:59:05;;;;;;;15.00;6.60;;;;;;;;;;105372;1251;61870;-46
2023/02/10 09:01:33;;;;;;;13.30;6.80;;;;;;;;;;105096;1254;60537;-46
2023/02/10 09:04:02;;;;;;;12.60;6.90;;;;;;;;;;105901;1250;60526;-45
2023/02/10 09:06:32;;;;;;;11.60;7.00;;;;;;;;;;105911;1251;60570;-46
2023/02/10 09:09:00;;;;;;;18.60;7.60;;;;;;;;;;105962;1256;60370;-45
2023/02/10 09:11:28;;;;;;;13.60;7.10;;;;;;;;;;105324;1256;61866;-45
2023/02/10 09:13:57;;;;;;;16.20;8.10;;;;;;;;;;105733;1254;60388;-47
2023/02/10 09:16:25;;;;;;;15.10;7.50;;;;;;;;;;106050;1251;60387;-45
2023/02/10 09:18:53;;;;;;;15.80;7.40;;;;;;;;;;106985;1254;60537;-48
2023/02/10 09:21:22;;;;;;;16.40;7.90;;;;;;;;;;105251;1251;60520;-47
2023/02/10 09:23:50;;;;;;;11.80;6.60;;;;;;;;;;105602;1251;62094;-47
2023/02/10 09:26:18;;;;;;;13.80;7.00;;;;;;;;;;105878;1253;60515;-46
2023/02/10 09:28:46;;;;;;;11.00;6.10;;;;;;;;;;105185;1251;61075;-47
2023/02/10 09:31:15;;;;;;;12.00;6.80;;;;;;;;;;108809;1251;58756;-48
2023/02/10 09:33:43;;;;;;;13.90;6.30;;;;;;;;;;105216;1250;60469;-47
2023/02/10 09:36:12;;;;;;;8.90;5.30;;;;;;;;;;105595;1250;62053;-48
2023/02/10 09:38:40;;;;;;;10.70;5.70;;;;;;;;;;105522;1254;60516;-46
2023/02/10 09:41:12;;;;;;;11.10;5.80;;;;;;;;;;105763;1251;62138;-47
2023/02/10 09:43:42;;;;;;;11.00;5.90;;;;;;;;;;105525;1251;60860;-47
2023/02/10 09:46:40;;;;;;;13.50;6.70;;;;;;;;;;105549;1250;60401;-48
2023/02/10 09:49:17;;;;;;;9.80;5.20;;;;;;;;;;105093;1251;62268;-47
2023/02/10 09:52:04;;;;;;;15.00;6.10;;;;;;;;;;105587;1251;59840;-48
2023/02/10 09:54:33;;;;;;;10.40;5.60;;;;;;;;;;105053;1251;60331;-47
2023/02/10 09:57:05;;;;;;;11.70;5.20;;;;;;;;;;105307;1251;60357;-50
2023/02/10 09:59:33;;;;;;;10.20;4.80;;;;;;;;;;106513;1253;60344;-48
2023/02/10 10:02:03;;;;;;;9.50;5.30;;;;;;;;;;105191;1251;62348;-48
2023/02/10 10:04:31;;;;;;;11.90;6.50;;;;;;;;;;106113;1256;60509;-46
2023/02/10 10:07:17;;;;;;;11.20;4.80;;;;;;;;;;105216;1251;60606;-47
2023/02/10 10:09:46;;;;;;;12.20;4.90;;;;;;;;;;106041;1250;60524;-46
2023/02/10 10:12:16;;;;;;;6.10;3.30;;;;;;;;;;105682;1251;60376;-49
2023/02/10 10:14:44;;;;;;;7.90;3.60;;;;;;;;;;105379;1253;62142;-50
2023/02/10 10:17:24;;;;;;;6.10;3.00;;;;;;;;;;105640;1251;60535;-48
2023/02/10 10:19:54;;;;;;;10.80;4.80;;;;;;;;;;105281;1250;60501;-48
2023/02/10 10:22:35;;;;;;;6.70;3.30;;;;;;;;;;105321;1253;60568;-49
2023/02/10 10:25:18;;;;;;;5.50;2.50;;;;;;;;;;105440;1251;60313;-49
2023/02/10 10:27:50;;;;;;;4.10;1.70;;;;;;;;;;105324;1251;62071;-48
2023/02/10 10:30:19;;;;;;;3.20;1.80;;;;;;;;;;105464;1253;60425;-48
2023/02/10 10:32:56;;;;;;;5.10;1.90;;;;;;;;;;105580;1250;60414;-47
2023/02/10 10:35:26;;;;;;;4.30;1.60;;;;;;;;;;105266;1250;60516;-48
2023/02/10 10:37:54;;;;;;;5.70;2.20;;;;;;;;;;105474;1251;60341;-50
2023/02/10 10:40:24;;;;;;;3.50;2.20;;;;;;;;;;105217;1252;62161;-47
2023/02/10 10:42:52;;;;;;;3.20;1.80;;;;;;;;;;105605;1254;60490;-49
2023/02/10 10:45:24;;;;;;;3.70;1.70;;;;;;;;;;106548;1256;60567;-47
2023/02/10 10:48:01;;;;;;;2.60;1.60;;;;;;;;;;105618;1251;60506;-47
2023/02/10 10:50:30;;;;;;;4.20;1.40;;;;;;;;;;105503;1250;60402;-45
2023/02/10 10:52:57;;;;;;;3.70;1.80;;;;;;;;;;105658;1251;62129;-44
2023/02/10 10:55:46;;;;;;;3.00;1.60;;;;;;;;;;105785;1254;60425;-43
2023/02/10 10:58:18;;;;;;;3.20;1.70;;;;;;;;;;105309;1251;60444;-44
2023/02/10 11:00:53;;;;;;;3.40;1.90;;;;;;;;;;105621;1254;60428;-44
2023/02/10 11:03:21;;;;;;;;;;;;;;;;;;105798;1254;60418;-46
2023/02/10 11:06:06;;;;;;;4.20;1.70;;;;;;;;;;107257;1251;62304;-49
2023/02/10 11:08:38;;;;;;;3.10;1.70;;;;;;;;;;105305;1251;60735;-47
2023/02/10 11:11:09;;;;;;;4.20;2.30;;;;;;;;;;106019;1256;60422;-48
2023/02/10 11:13:38;;;;;;;2.80;1.90;;;;;;;;;;105116;1251;60574;-48
2023/02/10 11:16:10;;;;;;;4.50;1.90;;;;;;;;;;105564;1256;60402;-45
2023/02/10 11:18:38;;;;;;;4.40;2.00;;;;;;;;;;105695;1254;60989;-47
2023/02/10 11:21:06;;;;;;;5.00;2.50;;;;;;;;;;105376;1258;60409;-46
2023/02/10 11:23:35;;;;;;;4.20;1.90;;;;;;;;;;105933;1254;60749;-47
2023/02/10 11:26:06;;;;;;;3.20;1.40;;;;;;;;;;105480;1257;60530;-47
2023/02/10 11:28:35;;;;;;;5.60;2.20;;;;;;;;;;105721;1254;60431;-48
2023/02/10 11:31:04;;;;;;;5.00;2.30;;;;;;;;;;105582;1251;60834;-46
2023/02/10 11:33:33;;;;;;;7.20;2.60;;;;;;;;;;106506;1251;60575;-45
2023/02/10 11:36:08;;;;;;;4.60;2.60;;;;;;;;;;105516;1257;60747;-47
2023/02/10 11:38:36;;;;;;;7.80;3.60;;;;;;;;;;105829;1250;60452;-49
2023/02/10 11:41:05;;;;;;;6.10;3.20;;;;;;;;;;105735;1251;60422;-45
2023/02/10 11:43:37;;;;;;;6.80;3.80;;;;;;;;;;105386;1251;60820;-46
2023/02/10 11:46:05;;;;;;;5.50;4.00;;;;;;;;;;106108;1254;60598;-46
2023/02/10 11:48:34;;;;;;;8.00;4.00;;;;;;;;;;105777;1261;60753;-47
2023/02/10 11:51:03;;;;;;;6.40;3.10;;;;;;;;;;106659;1251;60618;-48
2023/02/10 11:53:33;;;;;;;5.40;3.10;;;;;;;;;;105304;1251;60367;-49
2023/02/10 11:56:01;;;;;;;6.70;2.80;;;;;;;;;;105364;1251;61911;-49
2023/02/10 11:59:03;;;;;;;5.60;3.30;;;;;;;;;;105656;1256;60584;-46
2023/02/10 12:01:40;;;;;;;5.70;3.00;;;;;;;;;;105062;1251;60794;-47
2023/02/10 12:04:26;;;;;;;4.40;2.60;;;;;;;;;;105715;1250;60594;-47
2023/02/10 12:06:58;;;;;;;4.60;2.60;;;;;;;;;;106051;1254;60397;-50
2023/02/10 12:09:31;;;;;;;4.30;2.40;;;;;;;;;;105153;1251;62191;-50
2023/02/10 12:12:05;;;;;;;6.80;2.80;;;;;;;;;;105433;1253;60405;-46
2023/02/10 12:14:39;;;;;;;4.20;1.90;;;;;;;;;;105532;1256;62190;-49
2023/02/10 12:17:22;;;;;;;5.60;2.60;;;;;;;;;;105287;1251;60617;-47
2023/02/10 12:19:59;;;;;;;5.40;2.70;;;;;;;;;;105320;1254;59781;-46
2023/02/10 12:22:30;;;;;;;4.70;2.40;;;;;;;;;;107706;1254;62155;-47
2023/02/10 12:25:24;;;;;;;4.50;3.40;;;;;;;;;;105988;1254;60347;-46
2023/02/10 12:27:55;;;;;;;6.40;3.60;;;;;;;;;;105126;1257;60439;-45
2023/02/10 12:30:30;;;;;;;3.70;2.50;;;;;;;;;;105566;1254;60424;-47
2023/02/10 12:33:16;;;;;;;8.00;3.30;;;;;;;;;;105832;1251;60408;-48
2023/02/10 12:36:03;;;;;;;7.20;4.40;;;;;;;;;;105470;1257;62142;-47
2023/02/10 12:38:33;;;;;;;8.30;5.20;;;;;;;;;;105312;1257;60363;-46
2023/02/10 12:41:05;;;;;;;8.00;5.20;;;;;;;;;;105246;1256;60702;-47
2023/02/10 12:43:42;;;;;;;9.60;5.30;;;;;;;;;;105241;1256;60529;-48
2023/02/10 12:46:17;;;;;;;9.50;5.10;;;;;;;;;;105253;1251;60439;-47
2023/02/10 12:48:54;;;;;;;9.90;5.70;;;;;;;;;;105830;1250;61065;-48
2023/02/10 12:51:42;;;;;;;11.70;7.20;;;;;;;;;;109492;1251;58330;-47
2023/02/10 12:54:13;;;;;;;11.90;6.70;;;;;;;;;;109169;1253;60502;-45
2023/02/10 12:56:49;;;;;;;12.40;5.50;;;;;;;;;;109496;1250;58052;-47
2023/02/10 12:59:26;;;;;;;10.60;6.70;;;;;;;;;;109361;1256;58215;-47
2023/02/10 13:01:54;;;;;;;13.60;7.50;;;;;;;;;;109379;1252;61387;-48
2023/02/10 13:04:27;;;;;;;11.60;6.80;;;;;;;;;;109522;1251;58618;-46
2023/02/10 13:07:14;;;;;;;9.20;6.00;;;;;;;;;;106877;1256;60472;-46
2023/02/10 13:09:47;;;;;;;9.70;7.00;;;;;;;;;;105833;1253;60437;-45
2023/02/10 13:12:18;;;;;;;10.80;5.90;;;;;;;;;;106040;1255;60514;-47
2023/02/10 13:14:46;;;;;;;12.40;7.30;;;;;;;;;;105507;1251;61216;-44
2023/02/10 13:17:14;;;;;;;12.30;7.40;;;;;;;;;;105792;1251;60418;-48
2023/02/10 13:19:56;;;;;;;9.70;6.50;;;;;;;;;;106385;1254;60980;-47
2023/02/10 13:22:31;;;;;;;10.80;6.60;;;;;;;;;;105735;1257;60545;-46
2023/02/10 13:25:01;;;;;;;14.50;7.30;;;;;;;;;;106441;1251;60344;-46
2023/02/10 13:27:50;;;;;;;13.80;8.50;;;;;;;;;;105677;1254;61864;-48
2023/02/10 13:30:37;;;;;;;17.30;9.30;;;;;;;;;;105588;1257;60444;-48
2023/02/10 13:33:24;;;;;;;13.70;8.30;;;;;;;;;;105400;1257;60529;-47
2023/02/10 13:35:51;;;;;;;12.50;6.60;;;;;;;;;;105644;1252;60308;-48